Latest Weather Observations for Murrurundi Gap

IDN60801

Issued at 6:23 pm EST Saturday 9 May 2026 (issued every 10 minutes, with the page automatically refreshed every 10 minutes)

About weather observations | Map of weather stations | Latest weather observations for NSW | Other Formats
Station Details ID: 061392 Name: MURRURUNDI GAP AWS Lat: -31.74 Lon: 150.79 Height: 729.4 m
Data from the previous 72 hours. | See also: Recent months at Murrurundi Gap
Date/Time
EST
Temp
°C
App
Temp
°C
Dew
Point
°C
Rel
Hum
%
Delta-T
°C
Wind Press
QNH
hPa
Press
MSL
hPa
Rain since
9am
mm
Dir  Spd
km/h
Gust
km/h
Spd
kts
Gust
kts
09/06:00pm 13.7 9.8 3.2 49 4.9 SSE 13 20 7 11 1025.1 1024.2 0.0
09/05:30pm 14.1 9.8 3.3 48 5.1 SE 15 19 8 10 1024.8 1023.9 0.0
09/05:00pm 14.6 10.4 3.7 48 5.2 SSE 15 20 8 11 1024.3 1023.4 0.0
09/04:30pm 15.4 10.9 4.2 47 5.4 SSE 17 20 9 11 1024.0 1023.1 0.0
09/04:00pm 16.2 12.1 4.3 45 5.8 ESE 15 20 8 11 1023.8 1022.9 0.0
09/03:30pm 16.9 13.2 4.3 43 6.2 ESE 13 19 7 10 1023.7 1022.8 0.0
09/03:00pm 16.9 12.7 3.6 41 6.4 SE 15 19 8 10 1023.6 1022.7 0.0
09/02:30pm 18.0 14.6 3.9 39 6.9 ESE 11 20 6 11 1023.6 1022.7 0.0
09/02:00pm 17.1 12.7 2.7 38 6.8 ESE 15 20 8 11 1023.5 1022.6 0.0
09/01:30pm 17.4 13.6 4.0 41 6.5 SE 13 20 7 11 1023.7 1022.8 0.0
09/01:00pm 16.5 12.8 4.5 45 5.9 ESE 13 22 7 12 1024.0 1023.1 0.0
09/12:30pm 16.4 11.9 4.4 45 5.9 E 17 22 9 12 1024.3 1023.4 0.0
09/12:00pm 15.0 10.0 4.4 49 5.1 ESE 20 26 11 14 1024.9 1024.0 0.0
09/11:30am 14.6 8.5 4.6 51 4.8 ESE 26 33 14 18 1025.1 1024.2 0.0
09/11:00am 14.1 7.7 5.2 55 4.3 ESE 28 35 15 19 1025.4 1024.5 0.0
09/10:30am 13.5 6.8 5.7 59 3.8 ESE 30 35 16 19 1025.6 1024.7 0.0
09/10:00am 13.4 8.3 6.0 61 3.6 ESE 22 32 12 17 1025.7 1024.8 0.0
09/09:30am 11.5 5.6 5.8 68 2.8 ESE 26 33 14 18 1025.7 1024.8 0.0
09/09:00am 10.6 5.9 6.2 74 2.1 ESE 20 28 11 15 1025.7 1024.8 0.0
09/08:30am 9.2 5.1 6.1 81 1.5 SE 17 22 9 12 1025.5 1024.6 0.0
09/08:00am 7.1 2.4 5.1 87 0.9 SE 19 24 10 13 1025.1 1024.2 0.0
09/07:30am 6.2 1.2 4.5 89 0.8 SE 20 30 11 16 1024.7 1023.8 0.0
09/07:00am 5.0 -0.2 3.8 92 0.5 SE 20 24 11 13 1024.3 1023.4 0.0
09/06:30am 5.4 -0.1 3.9 90 0.7 SE 22 28 12 15 1023.8 1022.9 0.0
09/06:00am 5.2 -0.3 3.9 91 0.6 SE 22 28 12 15 1023.5 1022.6 0.0
09/05:30am 4.9 -0.2 4.2 95 0.3 SE 20 24 11 13 1023.2 1022.2 0.0
09/05:00am 4.7 -0.3 3.8 94 0.4 SE 19 24 10 13 1022.8 1021.9 0.0
09/04:30am 4.9 -0.1 3.7 92 0.5 SE 19 20 10 11 1022.8 1021.9 0.0
09/04:00am 5.7 2.2 3.5 86 1.0 SE 11 13 6 7 1022.9 1022.0 0.0
09/03:30am 6.2 3.2 3.9 85 1.0 SE 9 11 5 6 1023.1 1022.1 0.0
09/03:00am 6.7 2.9 3.9 82 1.2 SE 13 15 7 8 1023.1 1022.1 0.0
09/02:30am 6.7 4.1 4.0 83 1.2 SE 7 11 4 6 1023.2 1022.2 0.0
09/02:00am 6.5 2.7 4.0 84 1.1 SE 13 15 7 8 1023.1 1022.1 0.0
09/01:30am 8.3 5.7 4.1 75 1.9 SE 7 11 4 6 1023.1 1022.1 0.0
09/01:00am 7.4 4.9 3.8 78 1.6 SE 6 9 3 5 1023.1 1022.1 0.0
09/12:30am 7.1 4.1 3.9 80 1.4 SE 9 11 5 6 1023.1 1022.1 0.0
09/12:00am 7.3 3.2 4.1 80 1.4 SE 15 20 8 11 1023.1 1022.1 0.0
 
Date/Time
EST
Temp
°C
App
Temp
°C
Dew
Point
°C
Rel
Hum
%
Delta-T
°C
Wind Press
QNH
hPa
Press
MSL
hPa
Rain since
9am
mm
Dir  Spd
km/h
Gust
km/h
Spd
kts
Gust
kts
08/11:30pm 8.3 4.5 3.9 74 2.0 SSE 13 17 7 9 1023.2 1022.2 0.0
08/11:00pm 8.3 4.9 3.9 74 2.0 SSE 11 15 6 8 1023.3 1022.3 0.0
08/10:30pm 8.8 5.0 3.8 71 2.3 SSE 13 17 7 9 1023.5 1022.6 0.0
08/10:00pm 8.2 4.8 3.9 74 1.9 SSE 11 17 6 9 1023.6 1022.7 0.0
08/09:30pm 8.8 5.4 3.8 71 2.3 S 11 17 6 9 1023.6 1022.7 0.0
08/09:00pm 8.8 5.4 3.8 71 2.3 SSW 11 15 6 8 1023.4 1022.4 0.0
08/08:30pm 8.9 6.1 3.3 68 2.5 WSW 7 11 4 6 1023.3 1022.3 0.0
08/08:00pm 8.7 6.5 3.1 68 2.5 WSW 4 9 2 5 1022.9 1022.0 0.0
08/07:30pm 9.9 7.4 3.6 65 2.9 WSW 6 7 3 4 1022.5 1021.6 0.0
08/07:00pm 10.0 6.0 3.1 62 3.1 WSW 13 15 7 8 1022.0 1021.0 0.0
08/06:30pm 11.5 7.9 3.0 56 3.9 SW 11 20 6 11 1021.5 1020.6 0.0
08/06:00pm 11.3 8.1 2.9 56 3.8 NW 9 13 5 7 1021.3 1020.4 0.0
08/05:30pm 12.3 8.0 3.0 53 4.3 NW 15 20 8 11 1020.6 1019.6 0.0
08/05:00pm 13.1 7.8 3.2 51 4.6 NW 20 26 11 14 1020.0 1019.1 0.0
08/04:30pm 13.9 8.2 3.1 48 5.0 NW 22 32 12 17 1019.7 1018.7 0.0
08/04:00pm 14.9 8.9 3.1 45 5.5 WNW 24 33 13 18 1019.8 1018.8 0.0
08/03:30pm 15.2 9.1 2.7 43 5.8 WNW 24 35 13 19 1019.8 1018.8 0.0
08/03:00pm 14.3 7.3 2.2 44 5.5 NW 28 39 15 21 1019.6 1018.6 0.0
08/02:30pm 14.2 7.7 2.8 46 5.3 NW 26 37 14 20 1019.8 1018.8 0.0
08/02:00pm 13.4 6.1 2.3 47 5.1 NW 30 39 16 21 1019.7 1018.7 0.0
08/01:30pm 12.9 6.4 2.7 50 4.7 NW 26 37 14 20 1020.0 1019.1 0.0
08/01:00pm 12.0 5.5 2.5 52 4.3 NW 26 33 14 18 1020.4 1019.4 0.0
08/12:30pm 11.3 4.7 2.1 53 4.1 NNW 26 35 14 19 1020.8 1019.8 0.0
08/12:00pm 11.5 4.5 2.0 52 4.2 NW 28 37 15 20 1021.2 1020.3 0.0
08/11:30am 10.0 3.0 1.9 57 3.6 NW 28 37 15 20 1021.3 1020.4 0.0
08/11:00am 9.4 3.5 1.8 59 3.3 NW 22 33 12 18 1022.0 1021.0 0.0
08/10:30am 8.5 2.6 1.4 61 3.0 NW 22 30 12 16 1022.2 1021.2 0.0
08/10:00am 7.6 1.6 1.0 63 2.8 NNW 22 26 12 14 1022.5 1021.6 0.0
08/09:30am 6.7 1.0 0.6 65 2.5 NW 20 26 11 14 1022.4 1021.5 0.0
08/09:00am 5.4 -1.1 0.2 69 2.1 NW 24 32 13 17 1022.5 1021.6 0.0
08/08:30am 5.1 -1.0 0.1 70 2.0 NW 22 30 12 16 1022.0 1021.0 0.0
08/08:00am 4.5 -1.1 -0.1 72 1.8 NW 19 26 10 14 1022.1 1021.1 0.0
08/07:30am 3.1 -2.6 -0.4 78 1.4 NW 19 26 10 14 1022.0 1021.0 0.0
08/07:00am 2.7 -1.9 -0.9 77 1.4 NW 13 15 7 8 1022.1 1021.1 0.0
08/06:30am 2.6 -2.4 -1.0 77 1.4 NW 15 19 8 10 1021.8 1020.8 0.0
08/06:00am 3.2 -2.2 -1.0 74 1.6 NW 17 26 9 14 1021.3 1020.4 0.0
08/05:30am 3.1 -2.6 -1.1 74 1.6 NW 19 20 10 11 1021.2 1020.3 0.0
08/05:00am 3.5 -2.2 -1.1 72 1.8 NW 19 24 10 13 1021.1 1020.2 0.0
08/04:30am 3.2 -1.8 -1.2 73 1.7 NW 15 19 8 10 1021.1 1020.2 0.0
08/04:00am 4.0 -0.6 -1.2 69 2.0 NW 13 17 7 9 1021.1 1020.2 0.0
08/03:30am 4.9 -0.8 -1.1 65 2.3 WSW 19 30 10 16 1020.8 1019.8 0.0
08/03:00am 4.7 0.4 -1.3 65 2.3 W 11 37 6 20 1021.0 1020.0 0.0
08/02:30am 4.8 1.4 -2.1 61 2.6 SW 6 9 3 5 1021.1 1020.2 0.0
08/02:00am 4.3 0.3 -2.1 63 2.4 SW 9 17 5 9 1021.1 1020.2 0.0
08/01:30am 4.2 0.2 -2.6 61 2.5 SW 9 15 5 8 1021.2 1020.3 0.0
08/01:00am 4.7 -0.1 -2.4 60 2.7 WSW 13 20 7 11 1021.2 1020.3 0.0
08/12:30am 4.6 -0.3 -3.2 57 2.9 W 13 30 7 16 1021.3 1020.4 0.0
08/12:00am 4.7 0.6 -2.8 58 2.8 W 9 15 5 8 1021.4 1020.5 0.0
 
Date/Time
EST
Temp
°C
App
Temp
°C
Dew
Point
°C
Rel
Hum
%
Delta-T
°C
Wind Press
QNH
hPa
Press
MSL
hPa
Rain since
9am
mm
Dir  Spd
km/h
Gust
km/h
Spd
kts
Gust
kts
07/11:30pm 4.8 0.7 -2.7 58 2.8 W 9 15 5 8 1021.5 1020.6 0.0
07/11:00pm 5.2 1.1 -3.1 55 3.1 W 9 17 5 9 1021.9 1020.9 0.0
07/10:30pm 5.3 0.0 -3.2 54 3.1 W 15 30 8 16 1021.5 1020.6 0.0
07/10:00pm 5.4 0.9 -3.4 53 3.2 W 11 19 6 10 1021.9 1020.9 0.0
07/09:30pm 5.8 2.0 -4.1 49 3.6 NW 7 15 4 8 1022.0 1021.0 0.0
07/09:00pm 5.6 1.7 -4.3 49 3.6 WNW 7 11 4 6 1021.7 1020.7 0.0
07/08:30pm 5.7 -0.1 -4.2 49 3.6 NW 17 24 9 13 1021.3 1020.4 0.0
07/08:00pm 5.6 0.6 -4.5 48 3.6 NW 13 19 7 10 1021.2 1020.3 0.0
07/07:30pm 6.6 1.2 -4.8 44 4.1 WNW 15 22 8 12 1021.2 1020.3 0.0
07/07:00pm 6.5 1.0 -5.2 43 4.2 WNW 15 28 8 15 1021.0 1020.0 0.0
07/06:30pm 7.1 2.4 -5.2 41 4.4 WNW 11 20 6 11 1020.7 1019.7 0.0
07/06:00pm 7.9 1.6 -5.5 38 4.8 WNW 19 32 10 17 1020.3 1019.3 0.0
07/05:30pm 8.5 2.2 -5.7 36 5.1 W 19 30 10 16 1019.4 1018.4 0.0
07/05:00pm 9.5 3.2 -6.3 32 5.7 WNW 19 30 10 16 1019.1 1018.1 0.0
07/04:30pm 10.3 2.9 -7.9 27 6.4 WSW 24 43 13 23 1019.0 1018.0 0.0
07/04:08pm 10.7 1.5 -8.0 26 6.6 WNW 33 56 18 30 1018.1 1017.1 0.0
07/04:00pm 11.0 2.1 -7.7 26 6.6 WNW 32 48 17 26 1018.2 1017.2 0.0
07/03:34pm 11.3 2.9 -6.1 29 6.4 WNW 30 48 16 26 1017.9 1016.9 0.0
07/03:30pm 11.5 3.3 -4.2 33 6.1 WNW 30 43 16 23 1018.1 1017.1 0.0
07/03:00pm 12.0 3.2 -4.6 31 6.4 W 33 52 18 28 1018.0 1017.0 0.0
07/02:59pm 12.0 3.2 -4.6 31 6.4 W 33 52 18 28 1017.8 1016.8 0.0
07/02:58pm 12.4 3.7 -3.8 32 6.4 W 33 46 18 25 1018.0 1017.0 0.0
07/02:30pm 12.5 2.8 0.6 44 5.2 WNW 41 54 22 29 1016.7 1015.7 0.0
07/02:00pm 12.5 3.1 2.4 50 4.6 WNW 41 57 22 31 1016.4 1015.4 0.0
07/01:38pm 11.6 1.7 2.6 54 4.1 WNW 44 63 24 34 1016.2 1015.1 0.0
07/01:30pm 12.3 2.7 3.3 54 4.2 WNW 43 57 23 31 1016.5 1015.5 0.0
07/01:15pm 12.2 3.8 3.7 56 4.0 WNW 37 56 20 30 1016.1 1015.0 0.0
07/01:00pm 12.1 2.8 4.8 61 3.5 NW 43 56 23 30 1015.9 1014.8 0.0
07/12:30pm 12.1 2.6 5.0 62 3.4 NW 44 54 24 29 1016.5 1015.5 0.0
07/12:00pm 11.5 2.6 4.9 64 3.1 NW 41 54 22 29 1017.0 1016.0 0.0
07/11:30am 11.5 3.7 4.9 64 3.1 NW 35 44 19 24 1017.5 1016.5 0.0
07/11:00am 11.1 4.0 5.4 68 2.7 WNW 32 44 17 24 1017.9 1016.9 0.0
07/10:30am 11.2 4.8 5.3 67 2.8 NW 28 37 15 20 1018.2 1017.2 0.0
07/10:00am 11.1 5.4 6.5 73 2.3 NW 26 37 14 20 1018.2 1017.2 0.0
07/09:30am 10.7 6.1 6.5 75 2.1 NW 20 26 11 14 1018.4 1017.4 0.0
07/09:00am 10.5 7.3 7.0 79 1.7 NW 13 17 7 9 1018.5 1017.5 0.0
07/08:30am 8.7 4.4 7.0 89 0.8 NNW 19 22 10 12 1018.5 1017.5 0.0
07/08:20am 8.2 3.7 6.8 91 0.7 NNW 20 24 11 13 1018.4 1017.4 0.0
07/08:00am 8.1 3.2 7.0 93 0.5 NW 22 28 12 15 1018.2 1017.2 0.0
07/07:30am 7.6 3.7 6.9 95 0.3 NW 17 20 9 11 1018.1 1017.1 0.0
07/07:00am 7.2 2.8 6.5 95 0.3 WNW 19 22 10 12 1017.6 1016.6 0.0
07/06:41am 7.2 2.6 6.5 95 0.3 WNW 20 22 11 12 1017.1 1016.1 0.0
07/06:30am 6.8 2.1 5.9 94 0.4 NW 20 24 11 13 1017.0 1016.0 0.0
07/06:24am 7.1 2.0 6.0 93 0.5 NW 22 26 12 14 1016.8 1015.8 0.0
07/06:00am 7.4 2.9 6.2 92 0.6 WNW 19 24 10 13 1017.0 1016.0 0.0
07/05:43am 7.4 3.3 6.3 93 0.5 WNW 17 20 9 11 1017.0 1016.0 0.0
07/05:30am 7.3 2.8 5.9 91 0.7 WNW 19 24 10 13 1016.9 1015.9 0.0
07/05:00am 7.5 2.8 6.0 90 0.7 NW 20 24 11 13 1016.7 1015.7 0.0
07/04:30am 7.9 3.7 5.5 85 1.1 NW 17 20 9 11 1016.6 1015.6 0.0
07/04:00am 8.9 4.3 5.6 80 1.6 NW 19 20 10 11 1016.7 1015.7 0.0
07/03:30am 9.2 5.0 5.6 78 1.7 NW 17 20 9 11 1016.8 1015.8 0.0
07/03:00am 9.6 5.5 6.0 78 1.7 WNW 17 20 9 11 1016.7 1015.7 0.0
07/02:30am 10.2 6.5 6.4 77 1.8 NW 15 19 8 10 1016.8 1015.8 0.0
07/02:00am 10.1 6.1 6.6 79 1.7 W 17 20 9 11 1017.1 1016.1 0.0
07/01:30am 11.0 6.8 7.5 79 1.8 WNW 19 20 10 11 1017.3 1016.2 0.0
07/01:00am 11.3 7.6 7.8 79 1.8 NW 17 19 9 10 1017.3 1016.2 0.0
07/12:30am 11.9 9.0 8.2 78 1.9 WNW 13 17 7 9 1017.4 1016.3 0.0
07/12:00am 12.7 10.2 8.2 74 2.3 WNW 11 15 6 8 1017.4 1016.3 0.0
 
Date/Time
EST
Temp
°C
App
Temp
°C
Dew
Point
°C
Rel
Hum
%
Delta-T
°C
Wind Press
QNH
hPa
Press
MSL
hPa
Rain since
9am
mm
Dir  Spd
km/h
Gust
km/h
Spd
kts
Gust
kts
06/11:30pm 12.7 10.5 9.2 79 1.8 WNW 11 15 6 8 1017.6 1016.6 0.0
06/11:00pm 13.0 10.5 9.6 80 1.8 WNW 13 15 7 8 1017.6 1016.6 0.0
06/10:30pm 13.0 10.1 9.8 81 1.7 NW 15 17 8 9 1017.8 1016.8 0.0
06/10:00pm 13.2 9.5 9.6 79 1.9 NW 19 20 10 11 1018.0 1017.0 0.0
06/09:30pm 14.9 11.6 9.7 71 2.8 NW 17 19 9 10 1018.1 1017.1 0.0
06/09:00pm 15.0 12.5 9.8 71 2.8 WNW 13 15 7 8 1018.1 1017.1 0.0
06/08:30pm 15.1 13.2 10.5 74 2.5 WNW 11 13 6 7 1018.3 1017.3 0.0
06/08:00pm 14.9 13.1 10.7 76 2.3 WNW 11 15 6 8 1018.3 1017.3 0.0
06/07:30pm 15.1 13.3 10.7 75 2.4 WNW 11 15 6 8 1018.2 1017.2 0.0
06/07:00pm 15.3 13.5 10.9 75 2.4 NW 11 13 6 7 1018.3 1017.3 0.0
06/06:30pm 15.9 13.7 10.9 72 2.8 NW 13 15 7 8 1018.3 1017.3 0.0

Other formats

Comma delimited format used in spreadsheet applications
http://www.bom.gov.au/fwo/IDN60801/IDN60801.95747.axf

JavaScript Object Notation format (JSON) in row-major order
http://www.bom.gov.au/fwo/IDN60801/IDN60801.95747.json

Data quality

Most of these data are generated automatically and are frequently updated. Quality checks on data are not normally performed. It is possible for incorrect values to appear. Refer to information at About Latest Weather Observations and please check the disclaimer before using these data.